MHLM/SAP METAR and TAF weather

Enter ICAO airport designator
Station Type Date Time Source
MHLM METAR 2019/12/07 05:00 UTC NOAA

MHLM 070500Z 36002KT 9999 FEW024 23/20 Q1019 A3009 NOSIG


Station Type Date Time Source
MHLM Decoded METAR 2019/12/07 05:00 UTC NOAA

La Mesa San Pedro Sula , Honduras (MHLM) 15-27N 087-56W 31M
Dec 07, 2019 - 12:00 AM EST / 2019.12.07 0500 UTC
Wind: from the N (360 degrees) at 2 MPH (2 KT):0
Visibility: greater than 7 mile(s):0
Sky conditions: mostly clear
Temperature: 73 F (23 C)
Dew Point: 68 F (20 C)
Relative Humidity: 83%
Pressure (altimeter): 30.09 in. Hg (1018 hPa)
ob: MHLM 070500Z 36002KT 9999 FEW024 23/20 Q1019 A3009 NOSIG
cycle: 5

Station Type Date Time Source
MHLM TAF 2019/12/07 06:39 UTC NOAA

TAF MHLM 070415Z 0706/0806 00000KT 9999 FEW025 BKN080 TX29/0720Z TN20/0712Z
BECMG 0715/0717 36010KT SCT028 SCT080 PROB30
TEMPO 0721/0802 8000 VCSH SCT030TCU BKN080
BECMG 0802/0804 9999 NSW FEW026 SCT080

Example: see airport list